Time;durP1;ratioP1;P1;durP2;ratioP2;P2;SDS_P1;SDS_P2;PMS_P1;PMS_P2;Temp;Humidity;BMP_temperature;BMP_pressure;BME280_temperature;BME280_humidity;BME280_pressure;Samples;Min_cycle;Max_cycle;Signal;HPM_P1;HPM_P2
2021/04/24 00:00:24;;;;;;;20.20;11.45;;;4.50;90.60;;;;;;5033360;28;20068;-41
2021/04/24 00:02:52;;;;;;;19.52;12.07;;;4.40;89.50;;;;;;5046234;28;20462;-41
2021/04/24 00:05:28;;;;;;;22.63;11.20;;;4.30;89.00;;;;;;5031614;28;20068;-41
2021/04/24 00:07:57;;;;;;;19.02;12.43;;;4.20;89.40;;;;;;5048849;28;20110;-41
2021/04/24 00:10:24;;;;;;;20.55;12.98;;;4.10;90.00;;;;;;5037561;28;20053;-43
2021/04/24 00:12:50;;;;;;;18.08;10.73;;;4.00;90.20;;;;;;5046883;28;20060;-40
2021/04/24 00:15:19;;;;;;;19.40;11.77;;;3.90;90.10;;;;;;5046164;28;20081;-41
2021/04/24 00:17:49;;;;;;;20.25;10.98;;;3.80;90.40;;;;;;5045441;28;20180;-41
2021/04/24 00:20:23;;;;;;;18.30;10.57;;;3.70;90.30;;;;;;5011991;28;20077;-40
2021/04/24 00:22:55;;;;;;;19.67;11.20;;;3.70;90.40;;;;;;5029268;28;20053;-42
2021/04/24 00:25:23;;;;;;;16.02;10.98;;;3.60;90.60;;;;;;5030840;28;20049;-40
2021/04/24 00:27:52;;;;;;;18.75;11.00;;;3.50;90.70;;;;;;5042115;28;20140;-41
2021/04/24 00:30:24;;;;;;;18.63;11.33;;;3.40;90.60;;;;;;5013338;28;20053;-42
2021/04/24 00:32:53;;;;;;;16.90;11.45;;;3.40;90.30;;;;;;5038579;28;20519;-41
2021/04/24 00:35:23;;;;;;;17.88;11.07;;;3.40;90.80;;;;;;5032097;28;20057;-41
2021/04/24 00:37:54;;;;;;;20.23;11.35;;;3.40;91.00;;;;;;5046712;28;20068;-41
2021/04/24 00:40:23;;;;;;;19.83;11.30;;;3.30;90.80;;;;;;5039639;28;20386;-40
2021/04/24 00:42:50;;;;;;;19.10;10.80;;;3.30;90.60;;;;;;5051790;28;20401;-41
2021/04/24 00:45:24;;;;;;;21.35;11.10;;;3.20;90.50;;;;;;5048328;28;20083;-43
2021/04/24 00:47:57;;;;;;;20.27;10.82;;;3.10;90.30;;;;;;5047748;28;20485;-41
2021/04/24 00:50:32;;;;;;;21.45;11.65;;;3.10;91.00;;;;;;5028126;28;20140;-41
2021/04/24 00:52:59;;;;;;;15.82;9.85;;;3.10;91.20;;;;;;5037730;28;20064;-40
2021/04/24 00:55:28;;;;;;;19.50;10.75;;;3.10;91.30;;;;;;5029933;28;20130;-40
2021/04/24 00:58:09;;;;;;;18.58;11.52;;;3.10;91.20;;;;;;5026364;28;20111;-41
2021/04/24 01:00:37;;;;;;;18.43;11.10;;;3.20;91.10;;;;;;5029060;28;20064;-42
2021/04/24 01:03:06;;;;;;;18.30;11.20;;;3.20;90.90;;;;;;5047109;28;20314;-41
2021/04/24 01:05:38;;;;;;;18.13;11.73;;;3.20;91.00;;;;;;5037914;28;20053;-42
2021/04/24 01:08:08;;;;;;;18.38;10.73;;;3.20;90.90;;;;;;5027774;28;20080;-41
2021/04/24 01:10:40;;;;;;;17.67;10.60;;;3.20;90.90;;;;;;5042950;28;20057;-42
2021/04/24 01:13:09;;;;;;;17.45;10.77;;;3.20;90.70;;;;;;5033274;28;20075;-43
2021/04/24 01:15:35;;;;;;;21.00;11.30;;;3.10;90.60;;;;;;5032157;28;20053;-41
2021/04/24 01:18:05;;;;;;;20.65;12.10;;;3.10;90.70;;;;;;5044401;28;20171;-41
2021/04/24 01:20:34;;;;;;;18.80;11.27;;;3.10;90.30;;;;;;5028196;28;20096;-41
2021/04/24 01:23:03;;;;;;;17.48;10.55;;;3.10;90.70;;;;;;5029920;28;20149;-40
2021/04/24 01:25:29;;;;;;;17.85;11.20;;;3.10;90.70;;;;;;5028695;28;20046;-41
2021/04/24 01:28:01;;;;;;;22.75;11.85;;;3.20;90.80;;;;;;5028096;28;20045;-40
2021/04/24 01:30:33;;;;;;;20.52;11.93;;;3.20;90.90;;;;;;5033704;28;20128;-40
2021/04/24 01:33:08;;;;;;;22.90;11.77;;;3.10;91.10;;;;;;5030668;28;20131;-41
2021/04/24 01:35:38;;;;;;;19.85;11.63;;;3.20;91.40;;;;;;5034651;28;20044;-40
2021/04/24 01:38:06;;;;;;;25.70;12.75;;;3.20;90.90;;;;;;5046541;28;20695;-41
2021/04/24 01:40:33;;;;;;;26.95;15.48;;;3.20;91.00;;;;;;5042078;28;20077;-41
2021/04/24 01:43:01;;;;;;;27.10;15.40;;;3.30;92.00;;;;;;5026854;28;20054;-41
2021/04/24 01:45:30;;;;;;;24.23;13.82;;;3.30;92.20;;;;;;5025369;28;20049;-42
2021/04/24 01:47:58;;;;;;;26.55;15.32;;;3.30;91.60;;;;;;5005576;28;20069;-41
2021/04/24 01:50:37;;;;;;;25.80;14.20;;;3.40;91.50;;;;;;5028087;28;20100;-42
2021/04/24 01:53:07;;;;;;;25.20;13.57;;;3.40;91.80;;;;;;5037931;28;20041;-43
2021/04/24 01:55:38;;;;;;;29.00;15.50;;;3.50;92.10;;;;;;5034591;28;20465;-39
2021/04/24 01:58:07;;;;;;;22.02;13.43;;;3.40;92.40;;;;;;5035855;28;20110;-39
2021/04/24 02:00:57;;;;;;;22.55;14.88;;;3.40;92.30;;;;;;5046947;28;20056;-40
2021/04/24 02:03:25;;;;;;;26.95;14.40;;;3.50;92.30;;;;;;5027386;28;20060;-40
2021/04/24 02:05:51;;;;;;;30.23;15.07;;;3.40;92.40;;;;;;5027542;28;20053;-39
2021/04/24 02:08:45;;;;;;;27.67;15.50;;;3.40;92.70;;;;;;5027297;28;20096;-40
2021/04/24 02:11:14;;;;;;;23.05;14.45;;;3.40;92.80;;;;;;5026703;28;20134;-39
2021/04/24 02:13:45;;;;;;;23.77;15.15;;;3.40;92.70;;;;;;5031988;28;20497;-39
2021/04/24 02:16:13;;;;;;;29.13;15.15;;;3.40;92.40;;;;;;5037619;28;20052;-41
2021/04/24 02:18:39;;;;;;;28.42;15.07;;;3.40;92.60;;;;;;5026715;28;20053;-40
2021/04/24 02:21:06;;;;;;;26.42;14.77;;;3.40;92.70;;;;;;5027313;28;20052;-42
2021/04/24 02:23:38;;;;;;;27.35;13.77;;;3.40;92.80;;;;;;5042652;28;20045;-40
2021/04/24 02:26:06;;;;;;;24.02;14.48;;;3.40;92.70;;;;;;5046709;28;20069;-40
2021/04/24 02:28:37;;;;;;;23.77;14.38;;;3.40;92.50;;;;;;5027163;28;20049;-40
2021/04/24 02:31:06;;;;;;;26.25;13.85;;;3.40;92.50;;;;;;5026571;28;20798;-40
2021/04/24 02:33:33;;;;;;;23.27;14.05;;;3.30;92.50;;;;;;5030910;28;20073;-40
2021/04/24 02:36:00;;;;;;;24.25;14.82;;;3.30;92.60;;;;;;5042617;28;20053;-41
2021/04/24 02:38:33;;;;;;;26.00;14.20;;;3.30;92.30;;;;;;5041739;28;20106;-40
2021/04/24 02:41:04;;;;;;;24.67;13.88;;;3.30;92.60;;;;;;5046775;28;20061;-40
2021/04/24 02:43:33;;;;;;;28.00;14.57;;;3.20;92.80;;;;;;5029133;28;20164;-41
2021/04/24 02:46:03;;;;;;;24.05;14.43;;;3.20;92.80;;;;;;5031428;28;20488;-41
2021/04/24 02:48:31;;;;;;;25.13;14.38;;;3.20;92.70;;;;;;5035149;28;20115;-41
2021/04/24 02:51:00;;;;;;;23.92;14.45;;;3.20;92.90;;;;;;5050957;28;20153;-40
2021/04/24 02:53:30;;;;;;;24.00;13.57;;;3.20;92.70;;;;;;5050055;28;20049;-41
2021/04/24 02:55:58;;;;;;;23.15;14.18;;;3.10;92.80;;;;;;5034272;28;20092;-42
2021/04/24 02:58:24;;;;;;;26.67;13.45;;;3.10;92.80;;;;;;5049032;28;20044;-41
2021/04/24 03:00:55;;;;;;;21.63;13.75;;;3.10;93.10;;;;;;5032859;28;20052;-42
2021/04/24 03:03:22;;;;;;;21.52;13.70;;;3.10;92.60;;;;;;5050957;28;20739;-41
2021/04/24 03:05:57;;;;;;;20.50;12.73;;;3.00;92.90;;;;;;5044981;28;20562;-41
2021/04/24 03:08:25;;;;;;;25.15;13.05;;;3.00;92.60;;;;;;5022864;28;20064;-42
2021/04/24 03:10:56;;;;;;;25.30;13.98;;;2.90;92.60;;;;;;5031651;28;20048;-41
2021/04/24 03:13:22;;;;;;;22.38;12.45;;;2.80;92.60;;;;;;5041440;28;20048;-42
2021/04/24 03:15:53;;;;;;;25.67;13.55;;;2.70;92.00;;;;;;5049096;28;20099;-43
2021/04/24 03:18:22;;;;;;;22.25;13.18;;;2.70;91.80;;;;;;5027984;28;20100;-41
2021/04/24 03:20:50;;;;;;;22.73;13.25;;;2.70;92.00;;;;;;5037690;28;20064;-44
2021/04/24 03:23:22;;;;;;;23.13;12.70;;;2.70;92.50;;;;;;5032724;28;20050;-40
2021/04/24 03:25:48;;;;;;;22.63;13.75;;;2.70;92.70;;;;;;5028519;28;20869;-40
2021/04/24 03:28:17;;;;;;;23.20;13.82;;;2.70;92.70;;;;;;5039141;28;20049;-42
2021/04/24 03:30:46;;;;;;;23.95;13.65;;;2.70;92.50;;;;;;5047363;28;20063;-40
2021/04/24 03:33:15;;;;;;;25.17;14.02;;;2.70;92.60;;;;;;5033854;28;20045;-41
2021/04/24 03:35:47;;;;;;;23.42;13.63;;;2.70;92.70;;;;;;5044691;28;20045;-40
2021/04/24 03:38:13;;;;;;;25.15;14.30;;;2.70;92.50;;;;;;5029546;28;20057;-41
2021/04/24 03:40:42;;;;;;;20.50;12.68;;;2.70;93.00;;;;;;5043808;28;20164;-40
2021/04/24 03:43:11;;;;;;;22.75;12.02;;;2.70;92.70;;;;;;5047461;28;20061;-41
2021/04/24 03:45:39;;;;;;;23.27;12.38;;;2.50;92.30;;;;;;5030311;28;20053;-40
2021/04/24 03:48:08;;;;;;;21.38;11.57;;;2.40;92.20;;;;;;5048396;28;20049;-41
2021/04/24 03:50:34;;;;;;;24.98;12.32;;;2.30;92.10;;;;;;5047332;28;20168;-40
2021/04/24 03:53:04;;;;;;;19.35;12.10;;;2.30;92.40;;;;;;5036155;28;20045;-42
2021/04/24 03:55:32;;;;;;;22.50;12.45;;;2.20;92.20;;;;;;5046624;28;20124;-41
2021/04/24 03:58:00;;;;;;;22.38;11.80;;;2.20;92.40;;;;;;5015786;28;20455;-41
2021/04/24 04:00:30;;;;;;;20.55;12.13;;;2.10;92.50;;;;;;5033718;28;20052;-41
2021/04/24 04:03:01;;;;;;;19.90;11.90;;;2.10;92.70;;;;;;5045148;28;20052;-41
2021/04/24 04:05:36;;;;;;;21.85;12.52;;;2.10;93.10;;;;;;5041049;28;20140;-41
2021/04/24 04:08:04;;;;;;;20.35;12.52;;;2.00;93.40;;;;;;5028839;28;20042;-41
2021/04/24 04:10:31;;;;;;;23.52;12.45;;;1.90;93.80;;;;;;5018684;28;20045;-40
2021/04/24 04:13:01;;;;;;;22.27;11.98;;;2.00;93.60;;;;;;5031118;28;20084;-39
2021/04/24 04:15:30;;;;;;;23.08;12.25;;;2.00;93.90;;;;;;5047226;28;20493;-41
2021/04/24 04:18:27;;;;;;;20.05;12.48;;;2.00;94.00;;;;;;5033109;28;20090;-41
2021/04/24 04:20:57;;;;;;;22.13;12.88;;;2.00;93.80;;;;;;5039298;28;20603;-42
2021/04/24 04:23:26;;;;;;;18.27;12.18;;;2.00;93.70;;;;;;5038129;28;20059;-41
2021/04/24 04:25:55;;;;;;;19.85;11.57;;;2.00;93.50;;;;;;5037270;28;20040;-41
2021/04/24 04:28:22;;;;;;;19.10;11.95;;;2.00;93.30;;;;;;5035977;28;20045;-42
2021/04/24 04:30:51;;;;;;;21.05;11.20;;;2.10;93.30;;;;;;5048459;28;20049;-43
2021/04/24 04:33:20;;;;;;;19.88;11.27;;;2.10;93.40;;;;;;5044563;28;20053;-41
2021/04/24 04:35:48;;;;;;;19.08;10.88;;;2.10;93.30;;;;;;5049252;28;20401;-41
2021/04/24 04:38:17;;;;;;;14.95;9.48;;;2.00;92.80;;;;;;5052390;28;20099;-41
2021/04/24 04:40:45;;;;;;;20.40;10.63;;;2.00;92.50;;;;;;5027840;28;20056;-41
2021/04/24 04:43:14;;;;;;;18.17;10.95;;;2.00;92.30;;;;;;5032699;28;20072;-41
2021/04/24 04:45:40;;;;;;;18.70;10.02;;;2.10;92.60;;;;;;5050032;28;20045;-41
2021/04/24 04:48:09;;;;;;;18.05;10.93;;;2.10;92.80;;;;;;5029221;28;20092;-42
2021/04/24 04:50:39;;;;;;;18.10;10.05;;;2.10;92.90;;;;;;5010563;28;20494;-42
2021/04/24 04:53:09;;;;;;;21.92;11.10;;;2.10;92.90;;;;;;5029009;28;20446;-42
2021/04/24 04:55:36;;;;;;;20.50;12.85;;;2.20;93.00;;;;;;5034916;28;20053;-41
2021/04/24 04:58:06;;;;;;;21.65;12.13;;;2.20;93.10;;;;;;5040682;28;20075;-42
2021/04/24 05:00:33;;;;;;;21.38;12.60;;;2.20;92.90;;;;;;5040740;28;20040;-38
2021/04/24 05:03:02;;;;;;;21.95;12.82;;;2.30;93.00;;;;;;5048688;28;20063;-40
2021/04/24 05:05:30;;;;;;;15.15;10.15;;;2.40;93.00;;;;;;5040279;28;20134;-41
2021/04/24 05:08:00;;;;;;;18.33;11.35;;;2.40;92.80;;;;;;5025715;28;20405;-39
2021/04/24 05:10:28;;;;;;;16.40;10.07;;;2.30;92.80;;;;;;5039900;28;20091;-40
2021/04/24 05:12:55;;;;;;;18.50;10.25;;;2.30;92.60;;;;;;5027630;28;20068;-39
2021/04/24 05:15:24;;;;;;;20.30;10.90;;;2.40;92.70;;;;;;5034481;28;20178;-39
2021/04/24 05:17:53;;;;;;;18.33;10.77;;;2.40;92.80;;;;;;5027615;28;20053;-40
2021/04/24 05:20:19;;;;;;;18.90;11.65;;;2.50;93.10;;;;;;5039723;28;20048;-40
2021/04/24 05:22:50;;;;;;;20.98;11.32;;;2.60;93.30;;;;;;5040919;28;20075;-40
2021/04/24 05:25:17;;;;;;;19.90;11.68;;;2.70;93.20;;;;;;5045499;28;20191;-39
2021/04/24 05:27:46;;;;;;;17.67;10.73;;;2.80;93.00;;;;;;5043444;28;20041;-38
2021/04/24 05:30:15;;;;;;;17.50;10.07;;;3.00;92.90;;;;;;5004097;28;20053;-39
2021/04/24 05:32:42;;;;;;;14.32;9.23;;;3.20;92.80;;;;;;5033338;28;20057;-39
2021/04/24 05:35:12;;;;;;;18.08;10.30;;;3.40;92.90;;;;;;5032892;28;20049;-39
2021/04/24 05:37:39;;;;;;;16.92;10.13;;;3.70;92.70;;;;;;5020401;28;20063;-39
2021/04/24 05:40:07;;;;;;;18.70;9.38;;;3.90;92.70;;;;;;5045125;28;20061;-40
2021/04/24 05:42:36;;;;;;;14.98;8.68;;;4.10;92.40;;;;;;5036446;28;20088;-38
2021/04/24 05:45:10;;;;;;;17.90;9.88;;;4.30;92.30;;;;;;5057311;28;20110;-38
2021/04/24 05:47:41;;;;;;;13.95;8.18;;;4.60;92.00;;;;;;5053541;28;20041;-39
2021/04/24 05:50:09;;;;;;;15.80;10.05;;;4.90;91.30;;;;;;5041739;28;20041;-39
2021/04/24 05:52:37;;;;;;;17.10;11.18;;;5.30;91.50;;;;;;5039887;28;20053;-39
2021/04/24 05:55:05;;;;;;;18.20;10.85;;;5.50;91.30;;;;;;5027917;28;20572;-39
2021/04/24 05:57:32;;;;;;;15.48;10.80;;;5.80;91.10;;;;;;5026722;28;20539;-40
2021/04/24 06:00:09;;;;;;;15.30;10.80;;;5.90;91.00;;;;;;5040260;28;20066;-39
2021/04/24 06:02:37;;;;;;;18.48;11.18;;;6.00;90.90;;;;;;5026559;28;20075;-39
2021/04/24 06:05:11;;;;;;;20.60;10.95;;;6.20;90.80;;;;;;5048054;28;20045;-39
2021/04/24 06:07:39;;;;;;;16.27;10.95;;;6.30;90.60;;;;;;5025615;28;20056;-38
2021/04/24 06:10:16;;;;;;;19.50;11.55;;;6.50;90.40;;;;;;5027242;28;20057;-39
2021/04/24 06:12:45;;;;;;;16.38;10.77;;;6.80;90.50;;;;;;5026378;28;20057;-39
2021/04/24 06:15:12;;;;;;;17.83;11.07;;;6.90;90.20;;;;;;5047770;28;20139;-38
2021/04/24 06:17:41;;;;;;;15.98;11.13;;;7.10;89.60;;;;;;5046496;28;20483;-40
2021/04/24 06:20:14;;;;;;;14.32;10.40;;;7.20;88.70;;;;;;5043382;28;20056;-41
2021/04/24 06:22:44;;;;;;;13.65;9.95;;;7.40;88.00;;;;;;5046177;28;20815;-40
2021/04/24 06:25:15;;;;;;;14.52;9.63;;;7.70;87.70;;;;;;5040477;28;20520;-40
2021/04/24 06:27:42;;;;;;;17.10;10.48;;;8.00;86.50;;;;;;5034699;28;20041;-41
2021/04/24 06:30:09;;;;;;;12.80;9.23;;;8.00;85.10;;;;;;5042372;28;20128;-38
2021/04/24 06:32:36;;;;;;;13.27;9.98;;;8.30;86.00;;;;;;5036984;28;20053;-39
2021/04/24 06:35:03;;;;;;;14.65;9.82;;;8.40;83.00;;;;;;5056881;28;20183;-40
2021/04/24 06:37:29;;;;;;;16.65;10.52;;;8.70;85.60;;;;;;5042539;28;20095;-41
2021/04/24 06:39:57;;;;;;;21.85;14.68;;;9.00;83.80;;;;;;5048052;28;20044;-40
2021/04/24 06:42:26;;;;;;;16.98;11.32;;;9.30;83.70;;;;;;5033936;28;20122;-41
2021/04/24 06:44:52;;;;;;;20.55;10.63;;;9.70;81.90;;;;;;5046611;28;20119;-40
2021/04/24 06:47:18;;;;;;;14.65;10.32;;;10.00;81.40;;;;;;5028002;28;20057;-41
2021/04/24 06:49:47;;;;;;;13.07;9.38;;;10.10;79.20;;;;;;5038478;28;20575;-40
2021/04/24 06:52:13;;;;;;;12.38;8.57;;;10.20;78.90;;;;;;5036104;28;20088;-43
2021/04/24 06:54:39;;;;;;;17.45;12.48;;;10.20;77.30;;;;;;5036179;28;20501;-43
2021/04/24 06:57:05;;;;;;;17.65;12.18;;;10.20;76.20;;;;;;5038818;28;20091;-43
2021/04/24 06:59:32;;;;;;;164.70;139.73;;;10.30;76.50;;;;;;5038904;28;20057;-40
2021/04/24 07:02:01;;;;;;;48.25;40.22;;;10.70;76.40;;;;;;5036006;28;20045;-39
2021/04/24 07:04:27;;;;;;;51.83;40.33;;;10.80;74.40;;;;;;5038721;28;20049;-41
2021/04/24 07:06:53;;;;;;;30.33;20.52;;;10.60;72.70;;;;;;5045771;28;20183;-41
2021/04/24 07:09:19;;;;;;;18.38;14.38;;;11.00;72.60;;;;;;5036331;28;20049;-42
2021/04/24 07:11:49;;;;;;;21.17;14.82;;;11.20;72.30;;;;;;5036191;28;20059;-42
2021/04/24 07:14:15;;;;;;;18.35;13.18;;;11.30;71.10;;;;;;5047494;28;20053;-43
2021/04/24 07:16:41;;;;;;;13.65;8.45;;;10.80;70.80;;;;;;5045675;28;20063;-42
2021/04/24 07:19:10;;;;;;;22.02;13.65;;;10.80;69.10;;;;;;5039737;28;20045;-43
2021/04/24 07:21:36;;;;;;;53.03;46.67;;;10.70;70.90;;;;;;5043234;28;20052;-42
2021/04/24 07:24:05;;;;;;;112.50;89.55;;;11.20;70.30;;;;;;5041662;28;20064;-42
2021/04/24 07:26:31;;;;;;;35.45;26.27;;;11.50;68.60;;;;;;5044961;28;20072;-42
2021/04/24 07:28:58;;;;;;;25.08;18.15;;;11.60;67.50;;;;;;5040897;28;20057;-42
2021/04/24 07:31:26;;;;;;;30.20;22.35;;;11.80;67.20;;;;;;5050284;28;20425;-41
2021/04/24 07:33:53;;;;;;;42.40;34.78;;;11.70;67.40;;;;;;5042491;28;20045;-44
2021/04/24 07:36:19;;;;;;;20.00;14.20;;;11.40;66.80;;;;;;5034708;28;20052;-41
2021/04/24 07:38:55;;;;;;;21.98;13.32;;;11.20;67.70;;;;;;5035911;28;20049;-44
2021/04/24 07:41:23;;;;;;;15.57;10.77;;;11.20;66.30;;;;;;5044999;28;20048;-42
2021/04/24 07:43:54;;;;;;;20.40;12.30;;;10.70;65.00;;;;;;5040846;28;20049;-41
2021/04/24 07:46:20;;;;;;;15.95;9.60;;;10.50;66.60;;;;;;5036258;28;20482;-41
2021/04/24 07:48:49;;;;;;;16.30;10.93;;;10.40;68.10;;;;;;5033282;28;20484;-40
2021/04/24 07:51:26;;;;;;;11.90;6.22;;;10.20;69.50;;;;;;5039797;28;20143;-42
2021/04/24 07:53:54;;;;;;;13.23;6.35;;;10.30;69.60;;;;;;5050680;28;20040;-44
2021/04/24 07:56:20;;;;;;;12.35;7.45;;;10.40;70.30;;;;;;5048848;28;20044;-43
2021/04/24 07:58:46;;;;;;;16.45;8.20;;;11.00;70.10;;;;;;5044779;28;20772;-44
2021/04/24 08:01:12;;;;;;;15.55;10.52;;;11.80;67.90;;;;;;5039729;28;20052;-43
2021/04/24 08:03:39;;;;;;;19.42;12.70;;;12.50;66.20;;;;;;5045360;28;20053;-44
2021/04/24 08:06:05;;;;;;;13.55;8.90;;;12.90;63.00;;;;;;5025029;28;20102;-42
2021/04/24 08:08:32;;;;;;;13.57;7.63;;;13.20;62.60;;;;;;5037323;28;20051;-43
2021/04/24 08:10:58;;;;;;;13.63;6.53;;;13.50;62.40;;;;;;5038329;28;20041;-45
2021/04/24 08:13:25;;;;;;;14.77;10.13;;;13.60;60.90;;;;;;5045053;28;20056;-42
2021/04/24 08:15:51;;;;;;;9.55;5.28;;;13.50;59.60;;;;;;5039916;28;20096;-43
2021/04/24 08:18:17;;;;;;;12.15;7.32;;;13.90;57.70;;;;;;5037581;28;20037;-45
2021/04/24 08:20:46;;;;;;;11.45;5.97;;;14.00;60.60;;;;;;5040772;28;20106;-42
2021/04/24 08:23:12;;;;;;;18.02;10.80;;;14.30;60.00;;;;;;5013058;28;20053;-43
2021/04/24 08:25:38;;;;;;;10.88;5.80;;;14.20;59.90;;;;;;5041156;28;20088;-47
2021/04/24 08:28:05;;;;;;;9.80;5.05;;;13.90;59.10;;;;;;5044999;28;20040;-44
2021/04/24 08:30:31;;;;;;;12.57;6.97;;;13.30;58.80;;;;;;5044195;28;20049;-41
2021/04/24 08:32:57;;;;;;;12.05;5.40;;;12.90;59.50;;;;;;5041569;28;20045;-41
2021/04/24 08:35:23;;;;;;;10.15;4.45;;;13.20;59.80;;;;;;5035701;28;20061;-41
2021/04/24 08:37:49;;;;;;;10.95;5.25;;;13.10;58.50;;;;;;5039430;28;20140;-44
2021/04/24 08:40:17;;;;;;;10.07;5.85;;;13.30;59.10;;;;;;5035949;28;20053;-43
2021/04/24 08:42:50;;;;;;;10.73;5.38;;;13.50;58.30;;;;;;5038600;28;20053;-42
2021/04/24 08:45:18;;;;;;;13.10;6.13;;;14.00;57.20;;;;;;5038445;28;20670;-40
2021/04/24 08:47:47;;;;;;;15.45;8.57;;;14.00;56.60;;;;;;5041781;28;20076;-40
2021/04/24 08:50:21;;;;;;;15.23;8.00;;;14.30;55.90;;;;;;5047065;28;20155;-42
2021/04/24 08:52:47;;;;;;;12.13;5.93;;;14.60;55.30;;;;;;5035944;28;20048;-40
2021/04/24 08:55:20;;;;;;;25.55;19.15;;;14.60;52.50;;;;;;5034055;28;20128;-40
2021/04/24 08:57:47;;;;;;;19.70;15.48;;;15.00;53.10;;;;;;5029564;28;20162;-42
2021/04/24 09:00:20;;;;;;;13.40;8.60;;;15.20;51.80;;;;;;5051356;28;20568;-41
2021/04/24 09:02:50;;;;;;;10.70;5.47;;;15.50;51.40;;;;;;5047256;28;20139;-40
2021/04/24 09:05:18;;;;;;;10.75;4.50;;;16.00;52.30;;;;;;5034453;28;20045;-41
2021/04/24 09:07:45;;;;;;;10.93;5.22;;;16.40;50.60;;;;;;5022007;28;20462;-40
2021/04/24 09:10:17;;;;;;;10.93;6.18;;;16.90;49.00;;;;;;5046259;28;20186;-40
2021/04/24 09:12:50;;;;;;;10.73;4.57;;;16.90;49.10;;;;;;5044800;28;20045;-41
2021/04/24 09:15:24;;;;;;;6.95;3.67;;;17.50;47.70;;;;;;5034978;28;20053;-42
2021/04/24 09:17:52;;;;;;;9.82;3.78;;;16.80;45.80;;;;;;5026473;28;20060;-41
2021/04/24 09:20:21;;;;;;;8.95;4.88;;;15.90;46.10;;;;;;5039889;28;20061;-40
2021/04/24 09:23:19;;;;;;;9.98;6.47;;;16.00;48.60;;;;;;5049724;28;20048;-40
2021/04/24 09:26:00;;;;;;;9.43;4.22;;;16.10;45.50;;;;;;5016689;28;21264;-41
2021/04/24 09:28:37;;;;;;;9.25;3.97;;;16.20;46.60;;;;;;5045583;28;20048;-41
2021/04/24 09:31:21;;;;;;;7.97;3.83;;;16.20;46.50;;;;;;5041119;28;20060;-41
2021/04/24 09:33:54;;;;;;;9.90;4.03;;;16.20;46.70;;;;;;5034776;28;20049;-42
2021/04/24 09:36:21;;;;;;;14.25;6.65;;;16.40;48.50;;;;;;5045466;28;20044;-42
2021/04/24 09:38:52;;;;;;;10.05;3.85;;;17.10;46.60;;;;;;5011531;28;20496;-41
2021/04/24 09:41:24;;;;;;;9.65;4.70;;;17.20;44.40;;;;;;5041306;28;20566;-42
2021/04/24 09:43:58;;;;;;;8.60;5.20;;;16.90;45.00;;;;;;5042023;28;20406;-45
2021/04/24 09:46:29;;;;;;;8.80;3.85;;;16.50;43.80;;;;;;5027515;28;20053;-42
2021/04/24 09:49:11;;;;;;;10.80;3.47;;;16.40;44.80;;;;;;5042205;28;20041;-43
2021/04/24 09:51:41;;;;;;;8.40;3.35;;;16.00;42.70;;;;;;5029836;28;20085;-41
2021/04/24 09:54:08;;;;;;;9.57;3.85;;;16.30;44.60;;;;;;5047782;28;20076;-41
2021/04/24 09:56:36;;;;;;;13.40;3.95;;;16.50;44.70;;;;;;5027846;28;20049;-42
2021/04/24 09:59:08;;;;;;;16.75;8.73;;;16.50;44.40;;;;;;5035613;28;20045;-42
2021/04/24 10:01:38;;;;;;;23.73;18.48;;;16.70;43.40;;;;;;5036686;28;20454;-41
2021/04/24 10:04:09;;;;;;;10.55;3.38;;;16.80;42.70;;;;;;5043741;28;20056;-41
2021/04/24 10:06:38;;;;;;;12.13;4.72;;;17.00;40.60;;;;;;5025320;28;20076;-44
2021/04/24 10:09:09;;;;;;;12.20;6.50;;;17.20;41.70;;;;;;5037790;28;20051;-42
2021/04/24 10:11:35;;;;;;;9.13;5.20;;;17.40;41.00;;;;;;5034890;28;20707;-41
2021/04/24 10:14:02;;;;;;;9.02;3.88;;;17.60;40.70;;;;;;5039338;28;20129;-43
2021/04/24 10:16:51;;;;;;;8.80;3.05;;;17.90;39.40;;;;;;5037175;28;20048;-42
2021/04/24 10:19:20;;;;;;;10.38;5.03;;;18.20;37.70;;;;;;5034356;28;20160;-43
2021/04/24 10:21:49;;;;;;;9.43;3.85;;;18.40;39.40;;;;;;5033314;28;20041;-44
2021/04/24 10:24:15;;;;;;;7.25;3.72;;;18.40;39.50;;;;;;5027541;28;20160;-44
2021/04/24 10:26:44;;;;;;;9.00;3.63;;;18.60;38.90;;;;;;5034333;28;20156;-43
2021/04/24 10:29:10;;;;;;;16.27;3.42;;;18.40;37.60;;;;;;5019604;28;20045;-43
2021/04/24 10:31:37;;;;;;;9.45;3.35;;;18.50;37.50;;;;;;5036517;28;20159;-44
2021/04/24 10:34:07;;;;;;;6.85;3.20;;;18.20;37.10;;;;;;5032318;28;20048;-41
2021/04/24 10:36:34;;;;;;;9.35;3.78;;;18.50;36.20;;;;;;5043872;28;20541;-43
2021/04/24 10:39:03;;;;;;;8.63;4.03;;;18.60;37.10;;;;;;5032783;28;20048;-43
2021/04/24 10:41:38;;;;;;;15.77;10.52;;;18.80;36.00;;;;;;5037900;28;20166;-44
2021/04/24 10:44:14;;;;;;;26.90;19.90;;;18.90;35.30;;;;;;5029482;28;20057;-43
2021/04/24 10:46:57;;;;;;;12.38;7.22;;;18.60;35.40;;;;;;5038153;28;20102;-46
2021/04/24 10:49:32;;;;;;;14.68;9.13;;;19.10;35.60;;;;;;5032502;28;20227;-42
2021/04/24 10:52:17;;;;;;;14.93;10.60;;;19.10;35.40;;;;;;5031734;28;20088;-42
2021/04/24 10:55:03;;;;;;;8.75;3.35;;;19.30;34.20;;;;;;5025894;28;20056;-42
2021/04/24 10:57:39;;;;;;;9.65;3.90;;;19.20;34.70;;;;;;5029909;28;20080;-42
2021/04/24 11:00:18;;;;;;;9.43;3.05;;;19.30;33.00;;;;;;5030118;28;20088;-42
2021/04/24 11:02:51;;;;;;;6.13;2.50;;;19.50;33.70;;;;;;5034975;28;20132;-42
2021/04/24 11:05:23;;;;;;;8.50;3.13;;;19.70;34.50;;;;;;5038491;28;20045;-42
2021/04/24 11:08:19;;;;;;;;;;;19.70;33.30;;;;;;5036709;28;20110;-42
2021/04/24 11:10:47;;;;;;;5.22;2.42;;;19.00;32.90;;;;;;5043292;28;19946;-42
2021/04/24 11:13:17;;;;;;;6.18;2.65;;;18.80;34.40;;;;;;5029566;28;20080;-42
2021/04/24 11:15:47;;;;;;;7.43;2.20;;;18.60;32.60;;;;;;5033766;28;20052;-45
2021/04/24 11:18:16;;;;;;;6.05;1.90;;;18.20;32.30;;;;;;5011534;28;20065;-41
2021/04/24 11:21:01;;;;;;;4.63;1.98;;;18.20;32.40;;;;;;5026680;28;20053;-42
2021/04/24 11:23:52;;;;;;;5.68;2.05;;;18.20;31.70;;;;;;5025969;28;20045;-45
2021/04/24 11:26:25;;;;;;;5.28;1.58;;;18.50;32.20;;;;;;5033344;28;20156;-43
2021/04/24 11:29:07;;;;;;;5.00;2.25;;;18.70;31.20;;;;;;5039904;28;20049;-42
2021/04/24 11:31:55;;;;;;;5.97;1.70;;;18.50;31.40;;;;;;5046891;28;20671;-43
2021/04/24 11:34:29;;;;;;;5.82;1.55;;;18.20;30.70;;;;;;5039636;28;20052;-45
2021/04/24 11:37:16;;;;;;;13.80;10.20;;;18.50;32.00;;;;;;5047568;28;20473;-45
2021/04/24 11:40:21;;;;;;;12.63;7.10;;;18.30;31.70;;;;;;5044401;28;20531;-42
2021/04/24 11:42:48;;;;;;;26.83;21.73;;;18.20;31.20;;;;;;5034303;28;20076;-43
2021/04/24 11:45:43;;;;;;;8.00;4.63;;;18.60;32.40;;;;;;5036879;28;20053;-44
2021/04/24 11:48:10;;;;;;;5.90;1.95;;;18.60;31.80;;;;;;5036054;28;20055;-43
2021/04/24 11:50:41;;;;;;;18.88;12.13;;;18.60;32.60;;;;;;5041594;28;20991;-44
2021/04/24 11:53:08;;;;;;;39.80;35.45;;;18.70;31.80;;;;;;5027134;28;20037;-41
2021/04/24 11:55:39;;;;;;;18.42;14.20;;;18.80;32.20;;;;;;5036374;28;20037;-42
2021/04/24 11:58:12;;;;;;;14.05;6.05;;;19.10;32.20;;;;;;5031665;28;20152;-41
2021/04/24 12:00:39;;;;;;;8.98;3.10;;;18.30;29.30;;;;;;5040720;28;20421;-42
2021/04/24 12:03:09;;;;;;;10.88;7.43;;;18.50;32.10;;;;;;5034388;28;20041;-41
2021/04/24 12:05:44;;;;;;;14.80;6.78;;;19.00;33.30;;;;;;5032637;28;20045;-43
2021/04/24 12:08:23;;;;;;;11.43;3.92;;;19.40;32.30;;;;;;5033969;28;20462;-41
2021/04/24 12:10:49;;;;;;;11.88;3.03;;;19.30;32.20;;;;;;5045645;28;20045;-42
2021/04/24 12:13:15;;;;;;;8.63;2.65;;;18.90;31.40;;;;;;5028495;28;20135;-42
2021/04/24 12:15:44;;;;;;;9.30;3.33;;;19.00;33.70;;;;;;5033148;28;20056;-43
2021/04/24 12:18:10;;;;;;;7.03;2.78;;;18.80;32.20;;;;;;5032239;28;20053;-40
2021/04/24 12:20:43;;;;;;;9.82;2.97;;;18.40;32.50;;;;;;5033582;28;20060;-40
2021/04/24 12:23:13;;;;;;;10.00;3.88;;;18.50;33.40;;;;;;5034449;28;20045;-41
2021/04/24 12:25:42;;;;;;;7.95;3.58;;;18.90;33.90;;;;;;5035830;28;20128;-42
2021/04/24 12:28:12;;;;;;;16.05;10.13;;;18.50;33.00;;;;;;5038331;28;20056;-41
2021/04/24 12:30:41;;;;;;;9.55;3.70;;;18.50;32.90;;;;;;5033698;28;20131;-42
2021/04/24 12:33:15;;;;;;;23.38;12.75;;;18.90;32.40;;;;;;5001580;28;20513;-44
2021/04/24 12:35:56;;;;;;;14.15;9.35;;;18.70;31.60;;;;;;5041860;28;20361;-42
2021/04/24 12:38:28;;;;;;;8.40;3.88;;;18.80;32.30;;;;;;5046339;28;20041;-42
2021/04/24 12:41:02;;;;;;;15.07;3.92;;;19.00;32.60;;;;;;5042925;28;20051;-42
2021/04/24 12:43:35;;;;;;;9.90;3.00;;;18.70;31.90;;;;;;5032148;28;20068;-40
2021/04/24 12:46:05;;;;;;;7.40;3.47;;;18.70;32.60;;;;;;5032588;28;20128;-44
2021/04/24 12:48:37;;;;;;;8.63;3.80;;;18.60;33.00;;;;;;5018443;28;20045;-45
2021/04/24 12:51:04;;;;;;;9.18;3.00;;;19.20;31.80;;;;;;5032154;28;20207;-41
2021/04/24 12:53:36;;;;;;;11.80;3.63;;;19.20;32.50;;;;;;5044207;28;20048;-40